Main page
METAR-TAF:

METAR-TAF

Airports :

Inverness Airport

Inverness, Scotland

latitude: 57-32N, longitude: 004-03W, elevation: 9 m

Current weather observation

The report was made 11 minutes ago, at 11:20 UTC
Wind 6 kt from the North/Northeast
Temperature 10°C
Humidity 82%
Pressure 988 hPa
Visibility 10 km or more
Few clouds at a height of 1000 ft
Scattered clouds at a height of 3200 ft

METAR: EGPE 091120Z 03006KT 9999 FEW010 SCT032 10/07 Q0988

Time: 12:31 (11:31 UTC)

Forecast

The report was made 3 hours and 33 minutes ago, at 07:58 UTC
Forecast valid from 09 at 09 UTC to 09 at 18 UTC
Wind 7 kt from the East/Northeast
Visibility 10 km or more
Few clouds at a height of 1000 ft
Scattered clouds at a height of 2500 ft
Probability 40% :
Temporary
from 09 at 11 UTC to 09 at 18 UTC
Visibility: 6000 m
rain showers

TAF: EGPE 090758Z 0909/0918 06007KT 9999 FEW010 SCT025 PROB40 TEMPO 0911/0918 6000 SHRA

Weather observations and forecasts of more than 4000 airports (METAR and TAF reports).

The available stations are represented by yellow and red dots on the map.

Hover mouse over dot to see the name of the station.

Then click to see weather observations and forecasts.

To change the map : click on the green buttons with a black cross to zoom in, on the green button with a dash to zoom out, or on the green arrows for adjacent maps.


METAR-TAF: